DW4556 Weather Reports


Display with metric or nautical units.
time (UTC)temp
F
wind
direction
speed
MPH
gust
MPH
rain 1hr
in
rain 24hr
in
rain mn
in
humidity
%
barometer
mb
20190319211501 67 182 8.0 0.0 0.00 0.00 0.00 42 1021.2
20190319210222 67 169 8.0 0.0 0.00 0.00 0.00 43 1021.3
20190319204737 68 148 9.0 0.0 0.00 0.00 0.00 42 1021.4
20190319203131 67 165 8.0 0.0 0.00 0.00 0.00 41 1021.7
20190319201809 66 173 9.0 0.0 0.00 0.00 0.00 40 1021.9
20190319200201 67 185 9.0 0.0 0.00 0.00 0.00 40 1022.0
20190319194728 67 184 9.0 0.0 0.00 0.00 0.00 40 1022.1
20190319193122 66 178 9.0 0.0 0.00 0.00 0.00 40 1022.5
20190319190215 67 182 9.0 0.0 0.00 0.00 0.00 40 1023.0
20190319184620 67 156 9.0 0.0 0.00 0.00 0.00 43 1023.2
20190319183143 67 177 9.0 0.0 0.00 0.00 0.00 43 1023.5
20190319181640 67 175 9.0 0.0 0.00 0.00 0.00 45 1023.8
20190319180204 65 159 8.0 0.0 0.00 0.00 0.00 44 1024.0
20190319174618 65 171 8.0 0.0 0.00 0.00 0.00 43 1024.3
20190319173100 65 178 9.0 0.0 0.00 0.00 0.00 42 1024.4
20190319171646 66 186 9.0 0.0 0.00 0.00 0.00 42 1024.6
20190319170209 65 185 8.0 0.0 0.00 0.00 0.00 43 1024.5
20190319164658 65 190 9.0 0.0 0.00 0.00 0.00 42 1024.5
20190319163208 65 170 10.0 0.0 0.00 0.00 0.00 42 1024.5
20190319161658 64 217 5.0 0.0 0.00 0.00 0.00 45 1024.6
20190319160058 63 211 5.0 0.0 0.00 0.00 0.00 46 1024.6
20190319154609 62 202 5.0 0.0 0.00 0.00 0.00 48 1024.5
20190319153040 62 212 4.0 0.0 0.00 0.00 0.00 49 1024.4
20190319151607 62 212 6.0 0.0 0.00 0.00 0.00 50 1024.4
20190319150033 60 209 4.0 0.0 0.00 0.00 0.00 53 1024.3
20190319144523 58 197 3.0 0.0 0.00 0.00 0.00 59 1024.3
20190319143028 55 141 1.0 0.0 0.00 0.00 0.00 66 1024.3
20190319141509 54 141 2.0 0.0 0.00 0.00 0.00 70 1024.4
20190319140005 52 141 1.0 0.0 0.00 0.00 0.00 75 1024.1
20190319134504 50 141 1.0 0.0 0.00 0.00 0.00 77 1023.9
20190319133014 49 141 1.0 0.0 0.00 0.00 0.00 78 1023.9
20190319131500 48 141 1.0 0.0 0.00 0.00 0.00 78 1023.8
20190319130208 48 141 0.0 0.0 0.00 0.00 0.00 78 1023.7
20190319124616 48 141 0.0 0.0 0.00 0.00 0.00 77 1023.7
20190319123123 48 141 1.0 0.0 0.00 0.00 0.00 77 1023.6
20190319121647 48 141 1.0 0.0 0.00 0.00 0.00 75 1023.6
20190319120140 48 141 1.0 0.0 0.00 0.00 0.00 75 1023.5
20190319114704 49 141 1.0 0.0 0.00 0.00 0.00 73 1023.5
20190319113202 50 141 2.0 0.0 0.00 0.00 0.00 71 1023.3
20190319111736 49 141 2.0 0.0 0.00 0.00 0.00 72 1023.2
20190319110119 49 140 1.0 0.0 0.00 0.00 0.00 73 1023.1
20190319104640 49 140 1.0 0.0 0.00 0.00 0.00 72 1023.0
20190319103210 49 140 1.0 0.0 0.00 0.00 0.00 70 1022.9
20190319101619 49 140 0.0 0.0 0.00 0.00 0.00 70 1022.8
20190319100217 48 140 0.0 0.0 0.00 0.00 0.00 73 1022.8
20190319094610 47 140 0.0 0.0 0.00 0.00 0.00 74 1022.7
20190319093153 48 140 0.0 0.0 0.00 0.00 0.00 74 1022.7
20190319091629 47 140 0.0 0.0 0.00 0.00 0.00 74 1022.7
20190319090125 47 140 0.0 0.0 0.00 0.00 0.00 74 1022.8
20190319084628 47 140 0.0 0.0 0.00 0.00 0.00 74 1023.0
20190319083125 46 140 0.0 0.0 0.00 0.00 0.00 76 1023.2
20190319081615 47 140 0.0 0.0 0.00 0.00 0.00 74 1023.2
20190319080224 47 140 0.0 0.0 0.00 0.00 0.00 74 1023.2
20190319074712 48 140 0.0 0.0 0.00 0.00 0.00 71 1023.3
20190319073058 49 140 0.0 0.0 0.00 0.00 0.00 66 1023.4
20190319071604 49 140 0.0 0.0 0.00 0.00 0.00 66 1023.4
20190319070125 50 140 0.0 0.0 0.00 0.00 0.00 66 1023.3
20190319064622 50 140 0.0 0.0 0.00 0.00 0.00 65 1023.4
20190319063123 50 140 0.0 0.0 0.00 0.00 0.00 65 1023.5
20190319061614 50 140 0.0 0.0 0.00 0.00 0.00 66 1023.5
20190319060103 50 140 0.0 0.0 0.00 0.00 0.00 67 1023.5
20190319054548 51 140 0.0 0.0 0.00 0.00 0.00 62 1023.6
20190319053108 52 140 0.0 0.0 0.00 0.00 0.00 61 1023.6
20190319051542 52 140 0.0 0.0 0.00 0.00 0.00 60 1023.6
20190319050047 52 140 0.0 0.0 0.00 0.00 0.00 59 1023.6
20190319044520 52 140 0.0 0.0 0.00 0.00 0.00 59 1023.6
20190319043029 52 140 0.0 0.0 0.00 0.00 0.00 61 1023.7
20190319041548 52 140 0.0 0.0 0.00 0.00 0.00 65 1023.7
20190319040027 53 140 0.0 0.0 0.00 0.00 0.00 58 1023.7
20190319034553 54 140 0.0 0.0 0.00 0.00 0.00 56 1023.7
20190319033124 55 140 0.0 0.0 0.00 0.00 0.00 53 1023.7
20190319031530 55 140 0.0 0.0 0.00 0.00 0.00 52 1023.5
20190319030035 56 140 0.0 0.0 0.00 0.00 0.00 51 1023.5
20190319024526 56 140 0.0 0.0 0.00 0.00 0.00 51 1023.5
20190319023020 56 140 0.0 0.0 0.00 0.00 0.00 50 1023.3
20190319021546 58 140 0.0 0.0 0.00 0.00 0.00 46 1023.1
20190319020019 59 140 0.0 0.0 0.00 0.00 0.00 45 1023.1
20190319014519 59 140 0.0 0.0 0.00 0.00 0.00 45 1023.0
20190319013057 60 140 0.0 0.0 0.00 0.00 0.00 45 1022.9
20190319011524 61 140 1.0 0.0 0.00 0.00 0.00 44 1022.9
20190319010044 62 140 0.0 0.0 0.00 0.00 0.00 42 1022.7
20190319004538 63 140 1.0 0.0 0.00 0.00 0.00 40 1022.7
20190319003022 64 140 1.0 0.0 0.00 0.00 0.00 38 1022.6
20190319001544 65 140 0.0 0.0 0.00 0.00 0.00 36 1022.5
20190319000047 66 140 4.0 0.0 0.00 0.00 0.00 35 1022.4
20190318234519 66 146 4.0 0.0 0.00 0.00 0.00 35 1022.3
20190318233012 67 143 4.0 0.0 0.00 0.00 0.00 33 1022.2
20190318231535 67 153 5.0 0.0 0.00 0.00 0.00 33 1022.4
20190318230014 68 127 5.0 0.0 0.00 0.00 0.00 30 1022.4
20190318224517 68 208 5.0 0.0 0.00 0.00 0.00 33 1022.4
20190318223012 68 132 6.0 0.0 0.00 0.00 0.00 31 1022.6
20190318221506 68 165 5.0 0.0 0.00 0.00 0.00 30 1022.6
20190318220003 68 171 4.0 0.0 0.00 0.00 0.00 32 1022.6
20190318214738 68 130 6.0 0.0 0.00 0.00 0.00 32 1022.8
20190318213218 68 194 5.0 0.0 0.00 0.00 0.00 32 1022.8